Time;durP1;ratioP1;P1;durP2;ratioP2;P2;SDS_P1;SDS_P2;PMS_P1;PMS_P2;Temp;Humidity;BMP_temperature;BMP_pressure;BME280_temperature;BME280_humidity;BME280_pressure;Samples;Min_cycle;Max_cycle;Signal;HPM_P1;HPM_P2
2021/10/29 00:01:14;;;;;;;126.10;35.92;;;;;;;8.72;85.65;100313.81;5039678;28;20873;-76
2021/10/29 00:03:39;;;;;;;110.67;35.80;;;;;;;8.73;85.10;100309.22;5046229;28;20892;-76
2021/10/29 00:06:05;;;;;;;95.43;37.20;;;;;;;8.71;85.11;100312.16;5052040;28;21414;-77
2021/10/29 00:08:31;;;;;;;138.73;35.22;;;;;;;8.72;85.34;100313.81;5053815;28;20426;-77
2021/10/29 00:10:56;;;;;;;112.30;35.03;;;;;;;8.71;85.22;100305.94;5045304;28;20436;-76
2021/10/29 00:13:21;;;;;;;70.67;32.47;;;;;;;8.68;85.35;100304.53;5063181;28;20397;-77
2021/10/29 00:15:47;;;;;;;102.60;33.40;;;;;;;8.65;85.59;100306.88;5053030;28;20416;-76
2021/10/29 00:18:12;;;;;;;108.10;34.83;;;;;;;8.61;85.09;100305.69;5053809;28;20892;-77
2021/10/29 00:20:38;;;;;;;73.20;32.90;;;;;;;8.61;85.60;100305.69;5054822;28;20396;-77
2021/10/29 00:23:03;;;;;;;130.97;36.13;;;;;;;8.64;85.38;100307.94;5053390;28;20401;-77
2021/10/29 00:25:28;;;;;;;231.45;37.08;;;;;;;8.61;85.18;100303.81;5053319;28;20400;-77
2021/10/29 00:27:54;;;;;;;92.77;31.37;;;;;;;8.55;85.41;100306.66;5057363;28;20478;-77
2021/10/29 00:30:19;;;;;;;101.60;33.93;;;;;;;8.51;85.70;100310.88;5053286;28;20730;-76
2021/10/29 00:32:45;;;;;;;78.57;30.93;;;;;;;8.55;85.74;100301.25;5055655;28;20397;-77
2021/10/29 00:35:10;;;;;;;62.80;32.60;;;;;;;8.53;85.92;100308.78;5050009;28;20409;-77
2021/10/29 00:37:39;;;;;;;152.87;35.63;;;;;;;8.56;85.73;100309.09;5055635;28;20410;-77
2021/10/29 00:40:11;;;;;;;134.90;34.15;;;;;;;8.54;85.66;100318.50;5058732;28;20825;-77
2021/10/29 00:42:37;;;;;;;113.30;33.05;;;;;;;8.53;85.79;100314.19;5034244;28;20440;-77
2021/10/29 00:45:07;;;;;;;112.32;32.95;;;;;;;8.51;85.11;100322.50;5054692;28;21057;-76
2021/10/29 00:47:32;;;;;;;132.25;36.05;;;;;;;8.49;84.94;100313.81;5031024;28;20839;-77
2021/10/29 00:49:58;;;;;;;129.73;34.37;;;;;;;8.50;85.68;100311.91;5057776;28;20423;-77
2021/10/29 00:52:23;;;;;;;85.60;34.33;;;;;;;8.52;85.37;100320.63;5060969;28;20952;-77
2021/10/29 00:54:50;;;;;;;95.87;33.83;;;;;;;8.50;85.31;100312.75;5040289;28;20510;-77
2021/10/29 00:57:15;;;;;;;74.50;33.50;;;;;;;8.47;85.66;100313.22;5040833;28;20405;-77
2021/10/29 00:59:40;;;;;;;96.63;34.77;;;;;;;8.45;85.59;100314.50;5034051;28;20395;-77
2021/10/29 01:02:06;;;;;;;148.48;35.60;;;;;;;8.44;85.98;100316.38;5057570;28;20874;-77
2021/10/29 01:04:31;;;;;;;167.27;36.30;;;;;;;8.44;85.78;100316.38;5055086;28;20488;-77
2021/10/29 01:06:57;;;;;;;120.63;32.77;;;;;;;8.42;85.85;100305.00;5068574;28;20413;-77
2021/10/29 01:09:22;;;;;;;163.68;37.28;;;;;;;8.43;85.81;100308.53;5034289;28;20413;-77
2021/10/29 01:11:48;;;;;;;200.93;39.53;;;;;;;8.45;85.96;100307.22;5045913;28;20841;-77
2021/10/29 01:14:14;;;;;;;78.07;31.33;;;;;;;8.45;86.16;100299.13;5057641;28;20410;-77
2021/10/29 01:16:39;;;;;;;113.47;31.90;;;;;;;8.47;85.89;100305.09;5050820;28;20413;-77
2021/10/29 01:19:04;;;;;;;51.73;30.30;;;;;;;8.48;86.21;100301.38;5042466;28;20441;-77
2021/10/29 01:21:30;;;;;;;73.03;30.67;;;;;;;8.49;85.62;100297.63;5048821;28;20406;-76
2021/10/29 01:23:55;;;;;;;100.07;31.80;;;;;;;8.51;85.60;100306.28;5065253;28;20497;-77
2021/10/29 01:26:20;;;;;;;105.05;32.60;;;;;;;8.53;85.41;100304.16;5043191;28;20445;-77
2021/10/29 01:28:46;;;;;;;90.37;32.27;;;;;;;8.55;85.23;100304.78;5044842;28;20437;-77
2021/10/29 01:31:13;;;;;;;73.15;31.70;;;;;;;8.54;85.55;100311.22;5062894;28;20775;-77
2021/10/29 01:33:38;;;;;;;87.28;32.13;;;;;;;8.52;85.77;100305.25;5047344;28;20434;-77
2021/10/29 01:36:05;;;;;;;167.43;35.53;;;;;;;8.51;85.83;100300.06;5047581;28;20889;-77
2021/10/29 01:38:35;;;;;;;139.03;34.90;;;;;;;8.50;85.73;100298.41;5062478;28;20508;-77
2021/10/29 01:41:02;;;;;;;75.20;33.63;;;;;;;8.50;85.94;100293.00;5047447;28;20410;-76
2021/10/29 01:43:27;;;;;;;102.23;33.20;;;;;;;8.50;85.62;100293.84;5054486;28;20490;-77
2021/10/29 01:45:54;;;;;;;181.17;35.83;;;;;;;8.49;85.78;100294.09;5041948;28;20418;-77
2021/10/29 01:48:20;;;;;;;99.78;35.13;;;;;;;8.45;85.26;100301.84;5056691;28;20494;-77
2021/10/29 01:50:45;;;;;;;64.07;33.33;;;;;;;8.48;85.49;100300.53;5052004;28;20890;-76
2021/10/29 01:53:10;;;;;;;125.10;32.00;;;;;;;8.50;85.74;100293.84;5064593;28;20825;-77
2021/10/29 01:55:36;;;;;;;143.87;33.03;;;;;;;8.48;85.67;100290.56;5040553;28;20417;-77
2021/10/29 01:58:02;;;;;;;148.33;33.20;;;;;;;8.44;85.63;100293.97;5049749;28;20412;-77
2021/10/29 02:00:27;;;;;;;195.68;36.38;;;;;;;8.40;85.33;100290.91;5061511;28;20388;-77
2021/10/29 02:02:52;;;;;;;102.07;31.77;;;;;;;8.37;85.55;100290.53;5049593;28;20760;-77
2021/10/29 02:05:18;;;;;;;141.80;32.33;;;;;;;8.39;85.51;100280.34;5066813;28;20868;-77
2021/10/29 02:07:43;;;;;;;140.07;31.83;;;;;;;8.38;85.65;100290.31;5046485;28;20410;-77
2021/10/29 02:10:09;;;;;;;195.20;33.77;;;;;;;8.31;85.65;100293.13;5055903;28;20894;-77
2021/10/29 02:12:34;;;;;;;105.00;31.05;;;;;;;8.30;86.27;100294.19;5057863;28;20395;-77
2021/10/29 02:14:59;;;;;;;129.93;29.33;;;;;;;8.26;85.34;100284.91;5055241;28;20924;-77
2021/10/29 02:17:25;;;;;;;106.47;27.33;;;;;;;8.24;85.32;100280.78;5051613;28;20856;-77
2021/10/29 02:19:51;;;;;;;84.33;27.40;;;;;;;8.27;85.46;100277.59;5036211;28;20413;-77
2021/10/29 02:22:17;;;;;;;56.42;26.98;;;;;;;8.32;85.13;100277.75;5046760;28;20405;-77
2021/10/29 02:24:42;;;;;;;68.80;26.63;;;;;;;8.33;85.20;100272.13;5063015;28;20469;-76
2021/10/29 02:27:07;;;;;;;162.47;33.00;;;;;;;8.33;84.86;100263.22;5051634;28;20409;-77
2021/10/29 02:29:33;;;;;;;172.27;32.45;;;;;;;8.26;85.43;100266.00;5055610;28;20616;-77
2021/10/29 02:31:59;;;;;;;83.77;29.80;;;;;;;8.26;85.73;100274.09;5051249;28;20813;-77
2021/10/29 02:34:24;;;;;;;58.33;27.70;;;;;;;8.28;85.54;100273.88;5043561;28;20407;-77
2021/10/29 02:36:49;;;;;;;122.77;28.37;;;;;;;8.27;85.65;100269.50;5054878;28;20540;-77
2021/10/29 02:39:14;;;;;;;87.63;28.40;;;;;;;8.26;85.58;100265.19;5040386;28;20443;-78
2021/10/29 02:41:40;;;;;;;60.80;25.80;;;;;;;8.26;85.96;100259.78;5032155;28;20396;-77
2021/10/29 02:44:05;;;;;;;134.90;29.10;;;;;;;8.25;85.47;100264.34;5029809;28;20457;-77
2021/10/29 02:46:30;;;;;;;79.97;26.67;;;;;;;8.23;85.68;100260.25;5032198;28;20911;-77
2021/10/29 02:48:56;;;;;;;141.77;28.65;;;;;;;8.14;85.53;100262.47;5039904;28;20907;-77
2021/10/29 02:51:21;;;;;;;76.00;25.05;;;;;;;8.11;85.67;100267.50;5052046;28;20408;-77
2021/10/29 02:53:47;;;;;;;100.87;26.87;;;;;;;8.15;86.03;100271.38;5056062;28;20887;-77
2021/10/29 02:56:12;;;;;;;84.53;24.10;;;;;;;8.17;85.63;100261.16;5052467;28;20974;-77
2021/10/29 02:58:38;;;;;;;58.47;23.30;;;;;;;8.20;85.55;100249.91;5018570;28;20403;-77
2021/10/29 03:01:04;;;;;;;93.50;25.07;;;;;;;8.15;84.86;100260.59;5061428;28;20388;-77
2021/10/29 03:03:30;;;;;;;95.07;27.30;;;;;;;8.12;85.46;100261.06;5045664;28;20433;-77
2021/10/29 03:05:55;;;;;;;105.65;27.75;;;;;;;8.13;85.00;100268.09;5055747;28;20393;-77
2021/10/29 03:08:21;;;;;;;48.58;24.25;;;;;;;8.11;84.97;100262.09;5045901;28;20405;-77
2021/10/29 03:10:47;;;;;;;134.85;27.88;;;;;;;8.12;84.88;100264.56;5052977;28;20426;-77
2021/10/29 03:13:13;;;;;;;125.80;28.35;;;;;;;8.11;84.96;100265.63;5053817;28;20738;-77
2021/10/29 03:15:38;;;;;;;121.88;27.95;;;;;;;8.08;84.48;100266.09;5056368;28;20411;-77
2021/10/29 03:18:04;;;;;;;87.27;25.23;;;;;;;8.06;85.22;100265.50;5047443;28;20919;-77
2021/10/29 03:20:29;;;;;;;109.80;25.45;;;;;;;8.06;84.77;100267.38;5055100;28;20408;-77
2021/10/29 03:22:55;;;;;;;113.43;25.70;;;;;;;8.05;85.25;100269.25;5054553;28;20431;-77
2021/10/29 03:25:20;;;;;;;53.23;24.50;;;;;;;8.07;85.24;100260.91;5058342;28;20389;-77
2021/10/29 03:27:45;;;;;;;68.40;24.87;;;;;;;8.09;85.32;100267.75;5051178;28;20408;-77
2021/10/29 03:30:11;;;;;;;77.67;25.53;;;;;;;8.10;85.34;100265.88;5041714;28;20402;-77
2021/10/29 03:32:37;;;;;;;78.13;27.00;;;;;;;8.12;85.18;100255.66;5059670;28;20788;-77
2021/10/29 03:35:03;;;;;;;98.37;29.53;;;;;;;8.13;84.93;100260.84;5050985;28;20397;-77
2021/10/29 03:45:22;;;;;;;94.63;28.15;;;;;;;8.16;84.92;100243.34;5053807;28;20440;-77
2021/10/29 03:47:56;;;;;;;44.07;26.60;;;;;;;8.16;85.12;100244.16;5062476;28;20472;-77
2021/10/29 03:50:27;;;;;;;93.40;28.00;;;;;;;8.14;85.20;100246.25;5052999;28;20393;-77
2021/10/29 03:55:19;;;;;;;111.73;28.63;;;;;;;8.16;85.28;100257.66;5052526;28;20504;-77
2021/10/29 03:57:44;;;;;;;43.72;25.85;;;;;;;8.19;85.43;100253.66;5045669;28;20401;-77
2021/10/29 04:00:10;;;;;;;54.63;25.70;;;;;;;8.18;85.67;100257.41;5060465;28;20384;-77
2021/10/29 04:02:35;;;;;;;89.90;27.17;;;;;;;8.15;85.24;100256.00;5053009;28;20406;-77
2021/10/29 04:05:01;;;;;;;87.47;26.63;;;;;;;8.13;85.63;100255.44;5051885;28;20892;-77
2021/10/29 04:07:26;;;;;;;63.88;27.10;;;;;;;8.15;85.00;100255.19;5048349;28;20401;-77
2021/10/29 04:09:51;;;;;;;126.93;30.30;;;;;;;8.22;85.08;100256.72;5057304;28;20397;-77
2021/10/29 04:12:17;;;;;;;48.97;25.65;;;;;;;8.23;85.06;100262.94;5066350;28;20796;-77
2021/10/29 04:14:43;;;;;;;125.53;29.15;;;;;;;8.20;84.24;100261.50;5045514;28;20395;-78
2021/10/29 04:17:09;;;;;;;73.03;26.85;;;;;;;8.18;83.83;100260.94;5048429;28;20631;-77
2021/10/29 04:19:35;;;;;;;87.72;24.95;;;;;;;8.16;84.71;100246.03;5055750;28;20394;-77
2021/10/29 04:22:00;;;;;;;53.60;25.43;;;;;;;8.08;84.47;100241.81;5057794;28;20408;-77
2021/10/29 04:24:27;;;;;;;71.43;25.00;;;;;;;8.10;84.64;100247.78;5058721;28;20468;-77
2021/10/29 04:26:53;;;;;;;103.20;28.60;;;;;;;8.05;83.75;100244.97;5049390;28;20454;-77
2021/10/29 04:29:24;;;;;;;132.00;29.57;;;;;;;8.05;84.18;100238.75;5067690;28;20883;-77
2021/10/29 04:31:50;;;;;;;68.10;26.45;;;;;;;8.06;84.54;100243.09;5037972;28;20483;-77
2021/10/29 04:34:26;;;;;;;110.60;27.52;;;;;;;8.07;84.54;100247.41;5039617;28;20402;-77
2021/10/29 04:36:53;;;;;;;106.22;25.80;;;;;;;8.04;84.64;100248.72;5049495;28;20965;-77
2021/10/29 04:39:19;;;;;;;94.57;25.73;;;;;;;8.07;84.62;100250.13;5030950;28;20417;-77
2021/10/29 04:41:47;;;;;;;106.43;23.43;;;;;;;8.04;84.72;100251.41;5048618;28;20447;-77
2021/10/29 04:44:13;;;;;;;121.32;25.02;;;;;;;8.01;84.12;100249.19;5042754;28;20451;-77
2021/10/29 04:46:38;;;;;;;117.20;23.95;;;;;;;7.99;84.18;100251.31;5052780;28;20413;-77
2021/10/29 04:49:04;;;;;;;100.00;23.50;;;;;;;7.97;84.33;100250.69;5045700;28;20393;-77
2021/10/29 04:51:31;;;;;;;137.18;23.83;;;;;;;7.96;84.09;100246.38;5049727;28;20409;-77
2021/10/29 04:53:57;;;;;;;63.03;21.10;;;;;;;7.92;84.33;100247.88;5062038;28;20403;-76
2021/10/29 04:56:22;;;;;;;92.90;21.23;;;;;;;7.93;84.29;100246.84;5047443;28;20409;-76
2021/10/29 04:58:48;;;;;;;141.87;22.10;;;;;;;7.95;84.47;100247.41;5046193;28;20507;-76
2021/10/29 05:01:13;;;;;;;61.58;19.45;;;;;;;7.95;84.71;100244.72;5050019;28;20880;-76
2021/10/29 05:03:39;;;;;;;74.65;19.55;;;;;;;7.93;84.62;100243.31;5036586;28;20896;-76
2021/10/29 05:06:04;;;;;;;126.27;21.77;;;;;;;7.93;84.73;100237.94;5050413;28;20769;-76
2021/10/29 05:08:30;;;;;;;175.53;24.77;;;;;;;7.92;84.90;100244.38;5045159;28;20464;-76
2021/10/29 05:10:55;;;;;;;156.13;23.98;;;;;;;7.87;84.91;100233.47;5028084;28;20409;-76
2021/10/29 05:13:20;;;;;;;159.30;24.67;;;;;;;7.87;85.06;100230.75;5042127;28;20402;-76
2021/10/29 05:15:46;;;;;;;150.07;23.93;;;;;;;7.86;85.09;100237.22;5043332;28;20405;-76
2021/10/29 05:18:15;;;;;;;97.65;25.02;;;;;;;7.83;85.71;100233.94;5053142;28;20886;-76
2021/10/29 05:20:40;;;;;;;85.53;22.85;;;;;;;7.88;85.72;100221.59;5031116;28;20417;-76
2021/10/29 05:23:06;;;;;;;124.13;23.27;;;;;;;7.90;85.62;100227.59;5036209;28;20411;-76
2021/10/29 05:25:31;;;;;;;122.93;21.37;;;;;;;7.91;85.48;100227.34;5042137;28;20417;-76
2021/10/29 05:27:57;;;;;;;134.77;21.47;;;;;;;7.91;85.15;100216.56;5045611;28;20424;-76
2021/10/29 05:30:22;;;;;;;48.67;21.02;;;;;;;7.91;85.59;100211.16;5048581;28;20902;-77
2021/10/29 05:32:47;;;;;;;93.20;21.47;;;;;;;7.91;85.45;100207.63;5042003;28;20420;-76
2021/10/29 05:35:13;;;;;;;92.87;20.77;;;;;;;7.90;85.29;100208.72;5045040;28;20403;-77
2021/10/29 05:37:38;;;;;;;88.63;19.47;;;;;;;7.90;85.49;100198.75;5050084;28;20953;-76
2021/10/29 05:40:05;;;;;;;94.72;20.38;;;;;;;7.83;84.98;100198.03;5054031;28;20445;-76
2021/10/29 05:42:30;;;;;;;117.33;21.07;;;;;;;7.80;85.23;100191.19;5036414;28;20452;-76
2021/10/29 05:44:56;;;;;;;119.57;26.30;;;;;;;7.82;85.50;100186.41;5055596;28;20479;-76
2021/10/29 05:47:21;;;;;;;121.40;24.73;;;;;;;7.79;84.46;100188.75;5054263;28;20469;-76
2021/10/29 05:49:47;;;;;;;96.70;25.25;;;;;;;7.76;85.31;100186.53;5039530;28;20417;-76
2021/10/29 05:52:19;;;;;;;73.65;19.90;;;;;;;7.77;84.75;100194.38;5048908;28;20428;-76
2021/10/29 05:57:23;;;;;;;72.67;18.93;;;;;;;7.71;84.82;100191.78;5060954;28;20420;-76
2021/10/29 05:59:50;;;;;;;129.60;26.10;;;;;;;7.65;84.22;100195.41;5048261;28;20447;-77
2021/10/29 06:02:15;;;;;;;63.85;19.02;;;;;;;7.58;84.75;100200.91;5064916;28;20863;-76
2021/10/29 06:04:41;;;;;;;60.97;17.00;;;;;;;7.58;85.19;100194.69;5040361;28;20447;-76
2021/10/29 06:07:06;;;;;;;77.67;18.07;;;;;;;7.53;84.69;100197.28;5057030;28;20393;-76
2021/10/29 06:09:31;;;;;;;47.77;16.80;;;;;;;7.52;84.97;100199.16;5053400;28;20421;-76
2021/10/29 06:11:57;;;;;;;50.97;15.87;;;;;;;7.47;84.75;100196.34;5054412;28;20405;-76
2021/10/29 06:14:23;;;;;;;87.80;18.03;;;;;;;7.50;85.15;100195.88;5056337;28;20459;-76
2021/10/29 06:16:48;;;;;;;87.72;17.27;;;;;;;7.54;84.95;100190.84;5059376;28;20919;-76
2021/10/29 06:19:14;;;;;;;83.00;17.77;;;;;;;7.59;84.73;100197.16;5044177;28;20413;-76
2021/10/29 06:21:53;;;;;;;97.77;20.23;;;;;;;7.56;84.50;100202.19;5054185;28;20391;-76
2021/10/29 06:24:19;;;;;;;37.20;18.08;;;;;;;7.60;84.67;100204.22;5052239;28;20397;-77
2021/10/29 06:26:52;;;;;;;36.03;17.33;;;;;;;7.63;84.59;100206.44;5051277;28;20415;-77
2021/10/29 06:29:18;;;;;;;73.25;19.13;;;;;;;7.66;84.63;100203.28;5051155;28;20398;-76
2021/10/29 06:31:43;;;;;;;42.67;18.27;;;;;;;7.67;84.54;100196.81;5050947;28;20808;-76
2021/10/29 06:34:10;;;;;;;139.97;22.30;;;;;;;7.67;84.16;100202.22;5031498;28;20566;-75
2021/10/29 06:36:37;;;;;;;35.67;18.27;;;;;;;7.62;84.28;100212.06;5054169;28;20419;-76
2021/10/29 06:39:03;;;;;;;64.22;20.33;;;;;;;7.60;84.75;100203.38;5049320;28;23271;-76
2021/10/29 06:41:29;;;;;;;46.85;20.30;;;;;;;7.63;84.88;100208.31;5055472;28;20413;-76
2021/10/29 06:49:10;;;;;;;112.80;24.17;;;;;;;7.76;84.14;100192.75;5054440;28;20401;-76
2021/10/29 06:59:58;;;;;;;78.88;20.35;;;;;;;7.79;84.16;100204.94;5059001;28;20759;-77
2021/10/29 07:03:24;;;;;;;75.37;21.73;;;;;;;7.75;84.90;100203.75;5059764;28;20407;-77
2021/10/29 07:05:28;;;;;;;81.95;21.63;;;;;;;7.74;84.36;100212.91;5047950;28;20413;-76
2021/10/29 07:40:42;;;;;;;55.63;18.33;;;;;;;7.85;83.61;100230.97;5051779;28;20445;-76
2021/10/29 07:43:10;;;;;;;68.70;17.80;;;;;;;7.81;83.40;100224.41;5051592;28;20394;-76
2021/10/29 07:45:36;;;;;;;65.13;19.30;;;;;;;7.74;83.67;100235.28;5045471;28;20413;-76
2021/10/29 07:48:01;;;;;;;51.75;18.95;;;;;;;7.73;84.24;100235.53;5049214;28;20394;-76
2021/10/29 07:50:27;;;;;;;116.87;19.37;;;;;;;7.76;83.66;100235.91;5056068;28;20386;-76
2021/10/29 07:52:55;;;;;;;55.10;18.00;;;;;;;7.77;83.25;100242.13;5054260;28;20425;-76
2021/10/29 07:55:22;;;;;;;29.23;15.73;;;;;;;7.76;83.27;100241.31;5054796;28;20394;-76
2021/10/29 07:57:49;;;;;;;40.72;17.17;;;;;;;7.77;84.01;100240.22;5023925;28;20404;-76
2021/10/29 08:00:17;;;;;;;47.10;18.77;;;;;;;7.83;83.59;100241.19;5053659;28;20442;-75
2021/10/29 08:02:57;;;;;;;31.83;17.33;;;;;;;7.88;83.55;100246.69;5038197;28;20516;-76
2021/10/29 08:05:22;;;;;;;95.60;19.40;;;;;;;7.87;83.17;100247.75;5033565;28;20401;-76
2021/10/29 08:07:49;;;;;;;49.60;19.00;;;;;;;7.90;82.39;100241.91;5065883;28;20449;-76
2021/10/29 08:10:15;;;;;;;31.05;18.35;;;;;;;7.96;82.46;100245.56;5057068;28;20459;-76
2021/10/29 08:12:40;;;;;;;34.17;17.93;;;;;;;8.03;82.52;100246.25;5040205;28;20878;-76
2021/10/29 08:15:07;;;;;;;42.77;18.27;;;;;;;8.06;82.45;100235.81;5053232;28;20407;-76
2021/10/29 08:17:34;;;;;;;47.38;19.35;;;;;;;8.05;82.23;100238.75;5051158;28;20413;-76
2021/10/29 08:20:01;;;;;;;28.65;18.65;;;;;;;8.01;82.78;100238.38;5066700;28;20400;-76
2021/10/29 08:22:26;;;;;;;37.78;18.58;;;;;;;8.04;82.99;100253.28;5035282;28;20477;-76
2021/10/29 08:24:52;;;;;;;34.67;18.60;;;;;;;8.02;83.06;100252.72;5056814;28;20400;-76
2021/10/29 08:27:17;;;;;;;53.73;20.17;;;;;;;8.06;82.96;100243.09;5069459;28;20404;-76
2021/10/29 08:29:43;;;;;;;32.60;19.33;;;;;;;8.08;82.95;100254.47;5053472;28;20426;-76
2021/10/29 08:32:10;;;;;;;54.00;20.23;;;;;;;8.14;82.76;100240.03;5052985;28;20956;-75
2021/10/29 08:34:35;;;;;;;61.03;19.73;;;;;;;8.18;81.62;100241.22;5051361;28;20430;-75
2021/10/29 08:37:03;;;;;;;42.55;19.95;;;;;;;8.21;81.83;100246.16;5035106;28;20413;-75
2021/10/29 08:39:29;;;;;;;37.28;19.45;;;;;;;8.23;82.42;100242.16;5053210;28;20496;-75
2021/10/29 08:41:56;;;;;;;49.83;19.63;;;;;;;8.27;82.45;100239.81;5062001;28;20479;-76
2021/10/29 08:44:21;;;;;;;46.25;20.33;;;;;;;8.28;82.42;100236.09;5064696;28;20851;-76
2021/10/29 08:46:48;;;;;;;55.17;19.25;;;;;;;8.27;82.63;100240.63;5057293;28;20394;-76
2021/10/29 08:49:18;;;;;;;35.97;15.50;;;;;;;8.32;82.11;100239.97;5059502;28;20403;-76
2021/10/29 08:51:43;;;;;;;27.98;15.50;;;;;;;8.33;81.90;100238.91;5048011;28;20809;-77
2021/10/29 08:54:10;;;;;;;19.65;13.48;;;;;;;8.36;80.52;100234.91;5048674;28;20390;-76
2021/10/29 08:56:35;;;;;;;22.50;14.85;;;;;;;8.39;79.81;100234.44;5035088;28;20414;-76
2021/10/29 08:59:13;;;;;;;22.63;15.90;;;;;;;8.48;79.64;100228.44;5047589;28;20884;-76
2021/10/29 09:02:06;;;;;;;58.13;17.15;;;;;;;8.49;80.61;100227.41;5048248;28;20403;-75
2021/10/29 09:04:48;;;;;;;30.45;17.67;;;;;;;8.52;80.61;100224.22;5055898;28;20484;-75
2021/10/29 09:07:41;;;;;;;33.47;17.35;;;;;;;8.56;81.43;100217.25;5048165;28;20411;-76
2021/10/29 09:33:08;;;;;;;32.42;19.33;;;;;;;8.72;81.37;100207.63;5039864;28;20389;-76
2021/10/29 09:35:37;;;;;;;31.98;19.23;;;;;;;8.81;80.61;100211.59;5062118;28;20392;-76
2021/10/29 09:38:06;;;;;;;26.92;18.02;;;;;;;8.90;80.93;100204.75;5046911;28;20810;-76
2021/10/29 09:40:56;;;;;;;30.45;18.63;;;;;;;8.93;80.44;100206.97;5056107;28;20416;-76
2021/10/29 09:43:23;;;;;;;22.35;17.23;;;;;;;8.98;80.26;100206.25;5052961;28;20399;-76
2021/10/29 09:46:03;;;;;;;30.35;20.38;;;;;;;9.06;80.17;100209.38;5051665;28;21031;-76
2021/10/29 09:48:45;;;;;;;28.27;19.37;;;;;;;9.06;80.26;100198.56;5040755;28;20401;-76
2021/10/29 09:51:13;;;;;;;27.98;19.48;;;;;;;9.11;79.84;100204.09;5025341;28;20404;-77
2021/10/29 09:58:50;;;;;;;33.00;20.63;;;;;;;9.20;79.67;100202.63;5052299;28;20413;-76
2021/10/29 10:01:18;;;;;;;37.60;22.65;;;;;;;9.19;80.25;100182.06;5049120;28;20424;-76
2021/10/29 10:03:45;;;;;;;38.65;20.92;;;;;;;9.20;79.17;100191.81;5044121;28;20410;-77
2021/10/29 10:06:13;;;;;;;31.60;21.13;;;;;;;9.15;79.41;100180.09;5039642;28;20983;-77
2021/10/29 10:08:39;;;;;;;36.22;20.85;;;;;;;9.16;80.10;100176.31;5053764;28;20392;-76
2021/10/29 10:11:05;;;;;;;32.60;20.08;;;;;;;9.16;79.38;100177.13;5058840;28;20919;-77
2021/10/29 10:13:33;;;;;;;33.15;21.17;;;;;;;9.17;79.57;100183.38;5045059;28;20406;-76
2021/10/29 10:15:59;;;;;;;32.83;21.08;;;;;;;9.25;79.95;100183.78;5047218;28;20453;-76
2021/10/29 10:18:26;;;;;;;26.20;19.17;;;;;;;9.31;79.54;100182.84;5056854;28;20401;-76
2021/10/29 10:20:55;;;;;;;27.02;19.33;;;;;;;9.36;79.64;100182.91;5043972;28;20407;-76
2021/10/29 10:23:27;;;;;;;27.58;18.85;;;;;;;9.43;78.44;100181.94;5045923;28;20395;-76
2021/10/29 10:28:44;;;;;;;28.03;20.13;;;;;;;9.48;78.05;100185.56;5045525;28;20414;-76
2021/10/29 10:45:56;;;;;;;30.43;21.43;;;;;;;9.52;78.62;100159.66;5050136;28;20876;-76
2021/10/29 10:48:27;;;;;;;29.58;21.23;;;;;;;9.50;78.34;100156.38;5002087;28;20419;-76
2021/10/29 10:51:15;;;;;;;30.70;21.65;;;;;;;9.49;78.18;100160.13;5043334;28;20412;-77
2021/10/29 10:53:52;;;;;;;33.33;23.33;;;;;;;9.50;78.51;100158.25;5036920;28;20517;-76
2021/10/29 10:59:04;;;;;;;32.60;23.60;;;;;;;9.47;77.77;100151.47;5033630;28;20417;-74
2021/10/29 11:04:45;;;;;;;36.70;25.00;;;;;;;9.47;78.38;100143.34;5035543;28;20434;-76
2021/10/29 11:10:07;;;;;;;31.57;22.20;;;;;;;9.63;78.43;100144.41;5042302;28;20454;-77
2021/10/29 11:12:41;;;;;;;36.65;24.27;;;;;;;9.66;78.85;100135.78;5036639;28;20767;-76
2021/10/29 11:15:34;;;;;;;32.67;23.70;;;;;;;9.68;78.77;100122.84;5039900;28;20415;-76
2021/10/29 11:18:29;;;;;;;30.92;24.20;;;;;;;9.67;78.57;100119.31;5039799;28;20471;-76
2021/10/29 11:21:12;;;;;;;30.90;23.30;;;;;;;9.68;78.40;100112.81;5045685;28;20488;-76
2021/10/29 11:30:21;;;;;;;33.90;24.23;;;;;;;9.83;78.84;100110.38;5050211;28;20427;-77
2021/10/29 11:32:51;;;;;;;33.42;23.67;;;;;;;9.86;78.61;100101.75;5046399;28;20409;-76
2021/10/29 11:35:18;;;;;;;33.50;24.00;;;;;;;9.93;78.51;100101.56;5020525;28;20420;-76
2021/10/29 11:37:45;;;;;;;31.75;25.52;;;;;;;10.01;78.27;100103.03;5052044;28;20488;-77
2021/10/29 11:40:11;;;;;;;32.38;25.25;;;;;;;9.97;78.07;100097.31;5052541;28;20471;-76
2021/10/29 11:42:37;;;;;;;32.07;25.20;;;;;;;9.96;77.81;100094.84;5035128;28;20405;-76
2021/10/29 11:45:03;;;;;;;33.40;24.77;;;;;;;9.95;78.52;100088.59;5043982;28;20430;-76
2021/10/29 11:47:31;;;;;;;33.92;24.55;;;;;;;10.00;78.43;100077.84;5052516;28;20403;-76
2021/10/29 11:50:12;;;;;;;38.10;27.10;;;;;;;10.04;78.28;100079.00;5036113;28;20401;-77
2021/10/29 11:52:41;;;;;;;35.80;26.15;;;;;;;9.95;78.49;100076.94;5017228;28;20440;-76
2021/10/29 11:55:17;;;;;;;35.50;25.80;;;;;;;9.90;78.94;100075.00;5033604;28;20469;-76
2021/10/29 11:57:50;;;;;;;33.88;25.35;;;;;;;9.85;78.81;100069.50;5036130;28;20418;-76
2021/10/29 12:00:27;;;;;;;34.30;26.75;;;;;;;9.91;79.27;100066.63;5036907;28;20450;-76
2021/10/29 12:05:55;;;;;;;42.17;29.67;;;;;;;9.92;78.93;100056.63;5038770;28;20509;-76
2021/10/29 12:08:28;;;;;;;43.47;31.23;;;;;;;9.98;79.06;100058.31;5037512;28;20411;-75
2021/10/29 12:11:02;;;;;;;44.63;31.40;;;;;;;10.09;78.77;100043.84;5040952;28;22319;-75
2021/10/29 12:13:28;;;;;;;41.13;30.73;;;;;;;10.21;78.33;100044.56;5037827;28;20832;-75
2021/10/29 12:15:54;;;;;;;40.80;29.52;;;;;;;10.32;78.04;100034.69;5052245;28;20774;-75
2021/10/29 12:18:27;;;;;;;43.45;29.50;;;;;;;10.35;77.58;100035.00;5044348;28;20415;-75
2021/10/29 12:20:53;;;;;;;41.58;29.73;;;;;;;10.35;77.71;100018.75;5036929;28;20416;-76
2021/10/29 12:23:30;;;;;;;42.28;29.58;;;;;;;10.41;77.56;100023.16;5039335;28;20439;-75
2021/10/29 12:26:05;;;;;;;44.23;30.80;;;;;;;10.43;77.52;100020.19;5041539;28;20436;-75
2021/10/29 12:28:36;;;;;;;40.30;29.55;;;;;;;10.47;77.75;100024.03;5034549;28;20401;-77
2021/10/29 12:34:42;;;;;;;40.37;29.93;;;;;;;10.52;77.58;100007.00;4955696;28;21312;-76
2021/10/29 12:59:05;;;;;;;37.58;28.75;;;;;;;10.82;75.81;99977.50;5036273;28;20416;-75
2021/10/29 13:01:38;;;;;;;41.97;31.08;;;;;;;10.79;75.58;99976.13;5035329;28;20413;-75
2021/10/29 13:04:22;;;;;;;36.97;30.27;;;;;;;10.77;76.02;99972.81;5034623;28;20434;-74
2021/10/29 13:06:51;;;;;;;39.13;29.75;;;;;;;10.81;76.31;99965.81;5037123;28;20417;-75
2021/10/29 13:09:19;;;;;;;38.53;29.77;;;;;;;10.85;76.32;99969.66;5031113;28;20411;-74
2021/10/29 13:11:50;;;;;;;38.30;29.33;;;;;;;10.93;76.26;99954.81;5032081;28;20533;-75
2021/10/29 13:14:34;;;;;;;36.42;28.55;;;;;;;11.00;76.24;99955.38;5019052;28;20411;-75
2021/10/29 13:17:03;;;;;;;41.05;29.10;;;;;;;10.97;75.57;99957.81;5033175;28;20555;-75
2021/10/29 13:22:55;;;;;;;36.72;29.05;;;;;;;10.82;75.95;99951.19;5032452;28;20458;-75
2021/10/29 13:28:12;;;;;;;44.85;30.27;;;;;;;10.55;77.34;99950.41;5032976;28;20423;-75
2021/10/29 13:54:40;;;;;;;33.87;24.93;;;;;;;10.40;79.52;99893.41;5049664;28;20811;-75
2021/10/29 14:29:51;;;;;;;30.77;25.60;;;;;;;10.31;80.02;99882.19;5059145;28;20367;-75
2021/10/29 14:34:46;;;;;;;38.43;30.27;;;;;;;10.25;80.95;99875.09;5055208;28;20775;-75
2021/10/29 14:40:01;;;;;;;41.00;29.90;;;;;;;10.30;81.17;99872.47;5056536;28;20409;-75
2021/10/29 14:42:35;;;;;;;38.22;30.38;;;;;;;10.29;81.40;99878.94;5025679;28;20602;-75
2021/10/29 14:45:10;;;;;;;42.15;31.63;;;;;;;10.29;81.34;99881.66;5055382;28;20394;-75
2021/10/29 14:47:52;;;;;;;43.83;31.92;;;;;;;10.23;81.41;99877.25;5057974;28;20415;-75
2021/10/29 14:50:48;;;;;;;39.63;31.30;;;;;;;10.17;81.78;99872.06;5066429;28;20789;-76
2021/10/29 15:01:33;;;;;;;41.45;30.25;;;;;;;10.18;82.20;99860.94;5046784;28;20489;-75
2021/10/29 15:29:07;;;;;;;43.45;31.00;;;;;;;10.09;82.44;99845.41;5056503;28;20393;-75